Big Creek, Idaho
Current Conditions -  °F | °C
As of 5:51 PM on Tuesday 25 Nov 2014 (Local Time) from KMYL Reporting Station
Haze Haze  
Wind Chill: 34°   Ceiling: 1100
Heat Index: 34°   Visibility: 5mi
Dew Point: 33°   Wind: 0mph
Humidity: 96%   Direction: NA
Pressure: 30.2"   Gusts: NA
Location:  45.13°N, 115.32°W
Report Text: KMYL 260051Z AUTO 00000KT 5SM BR OVC011 01/01 A3020 RMK AO2 RAE29 CIG 009V013 SLP248 P0000 T00110006
Loading
Personal Weather Stations






























Interactive Weather Map New forecast layout! Learn more

10-Day Weather Forecast

Advertisements
Track Severe Weather on mobile